createdAt,value
2018-01-02T00:02:14.613Z,10.10
2018-01-02T00:04:42.899Z,10.83
2018-01-02T00:07:11.280Z,10.87
2018-01-02T00:09:39.514Z,10.00
2018-01-02T00:12:08.534Z,10.10
2018-01-02T00:14:36.800Z,10.80
2018-01-02T00:17:05.030Z,10.13
2018-01-02T00:19:33.284Z,9.67
2018-01-02T00:22:01.619Z,9.50
2018-01-02T00:24:30.698Z,10.20
2018-01-02T00:26:58.909Z,9.83
2018-01-02T00:29:27.168Z,9.10
2018-01-02T00:31:56.217Z,9.60
2018-01-02T00:34:24.630Z,9.63
2018-01-02T00:36:52.891Z,9.17
2018-01-02T00:39:21.149Z,8.90
2018-01-02T00:41:49.419Z,9.27
2018-01-02T00:44:17.732Z,9.63
2018-01-02T00:46:46.038Z,8.80
2018-01-02T00:51:39.038Z,9.37
2018-01-02T00:54:07.482Z,8.67
2018-01-02T00:56:35.723Z,9.53
2018-01-02T00:59:04.072Z,8.20
2018-01-02T01:01:32.356Z,8.47
2018-01-02T01:04:04.115Z,8.13
2018-01-02T01:06:33.528Z,7.70
2018-01-02T01:09:01.749Z,7.80
2018-01-02T01:11:30.243Z,7.70
2018-01-02T01:13:59.650Z,8.23
2018-01-02T01:16:27.960Z,8.03
2018-01-02T01:18:56.256Z,6.93
2018-01-02T01:21:24.470Z,7.87
2018-01-02T01:23:52.689Z,7.53
2018-01-02T01:26:21.122Z,7.80
2018-01-02T01:28:49.361Z,8.10
2018-01-02T01:31:17.614Z,7.73
2018-01-02T01:33:45.845Z,8.10
2018-01-02T01:36:14.267Z,7.63
2018-01-02T01:38:42.696Z,8.20
2018-01-02T01:41:11.709Z,7.60
2018-01-02T01:43:39.991Z,7.77
2018-01-02T01:46:08.249Z,7.93
2018-01-02T01:48:49.260Z,7.67
2018-01-02T01:51:17.517Z,7.63
2018-01-02T01:53:45.759Z,7.87
2018-01-02T01:56:14.983Z,7.70
2018-01-02T01:58:44.229Z,7.53
2018-01-02T02:01:12.467Z,7.43
2018-01-02T02:03:40.710Z,7.67
2018-01-02T02:06:09.706Z,7.90
2018-01-02T02:08:38.713Z,7.40
2018-01-02T02:11:07.126Z,7.80
2018-01-02T02:13:35.358Z,7.87
2018-01-02T02:16:04.470Z,8.40
2018-01-02T02:18:33.482Z,8.20
2018-01-02T02:21:01.775Z,7.53
2018-01-02T02:23:30.046Z,7.90
2018-01-02T02:25:58.323Z,7.73
2018-01-02T02:28:26.572Z,8.00
2018-01-02T02:30:54.785Z,8.10
2018-01-02T02:33:23.122Z,8.03
2018-01-02T02:35:51.430Z,7.63
2018-01-02T02:38:19.696Z,8.10
2018-01-02T02:40:59.757Z,7.70
2018-01-02T02:43:27.982Z,8.00
2018-01-02T02:45:56.377Z,8.10
2018-01-02T02:48:25.368Z,8.10
2018-01-02T02:50:54.179Z,8.37
2018-01-02T02:53:22.609Z,7.90
2018-01-02T02:55:50.885Z,7.77
2018-01-02T02:58:19.121Z,7.83
2018-01-02T03:00:48.332Z,8.00
2018-01-02T03:03:16.573Z,7.90
2018-01-02T03:05:44.944Z,8.27
2018-01-02T03:08:13.187Z,8.10
2018-01-02T03:10:41.492Z,8.40
2018-01-02T03:13:09.763Z,8.30
2018-01-02T03:15:38.791Z,8.27
2018-01-02T03:18:07.069Z,8.00
2018-01-02T03:20:35.289Z,8.00
2018-01-02T03:23:03.563Z,8.00
2018-01-02T03:25:31.943Z,8.20
2018-01-02T03:28:00.179Z,8.40
2018-01-02T03:30:28.412Z,8.20
2018-01-02T03:32:57.440Z,8.37
2018-01-02T03:35:25.838Z,7.87
2018-01-02T03:37:54.982Z,7.87
2018-01-02T03:40:26.026Z,9.17
2018-01-02T03:42:55.042Z,8.17
2018-01-02T03:45:23.356Z,8.23
2018-01-02T03:47:51.690Z,8.30
2018-01-02T03:50:19.909Z,7.93
2018-01-02T03:52:48.140Z,8.13
2018-01-02T03:55:16.443Z,8.83
2018-01-02T03:57:45.525Z,8.03
2018-01-02T04:00:13.770Z,8.57
2018-01-02T04:02:43.016Z,7.87
2018-01-02T04:05:11.262Z,7.80
2018-01-02T04:07:39.534Z,8.13
2018-01-02T04:10:07.835Z,7.70
2018-01-02T04:12:36.074Z,8.30
2018-01-02T04:15:05.095Z,8.03
2018-01-02T04:17:33.326Z,8.03
2018-01-02T04:20:01.547Z,8.20
2018-01-02T04:22:29.783Z,8.40
2018-01-02T04:24:58.075Z,8.10
2018-01-02T04:27:27.091Z,8.03
2018-01-02T04:29:56.088Z,8.10
2018-01-02T04:32:24.358Z,8.30
2018-01-02T04:34:52.666Z,8.77
2018-01-02T04:37:21.828Z,8.40
2018-01-02T04:39:50.830Z,8.57
2018-01-02T04:42:21.134Z,7.87
2018-01-02T04:44:50.183Z,8.03
2018-01-02T04:49:40.262Z,8.03
2018-01-02T04:52:08.600Z,8.70
2018-01-02T04:54:37.610Z,8.40
2018-01-02T04:57:05.854Z,8.50
2018-01-02T04:59:34.286Z,7.43
2018-01-02T05:02:03.384Z,8.60
2018-01-02T05:04:31.707Z,8.20
2018-01-02T05:06:59.921Z,8.53
2018-01-02T05:09:28.217Z,8.37
2018-01-02T05:11:56.531Z,8.27
2018-01-02T05:14:24.750Z,8.43
2018-01-02T05:16:52.977Z,7.97
2018-01-02T05:19:21.227Z,8.33
2018-01-02T05:21:49.439Z,8.50
2018-01-02T05:24:17.694Z,8.70
2018-01-02T05:26:45.961Z,8.10
2018-01-02T05:29:14.182Z,8.10
2018-01-02T05:31:43.248Z,8.40
2018-01-02T05:34:11.538Z,8.70
2018-01-02T05:36:39.755Z,7.33
2018-01-02T05:39:08.062Z,8.27
2018-01-02T05:41:36.334Z,8.37
2018-01-02T05:44:06.521Z,7.70
2018-01-02T05:46:34.756Z,7.80
2018-01-02T05:49:03.206Z,8.60
2018-01-02T05:51:31.473Z,7.90
2018-01-02T05:53:59.699Z,8.40
2018-01-02T05:56:28.702Z,8.57
2018-01-02T05:58:57.752Z,8.73
2018-01-02T06:01:25.991Z,8.27
2018-01-02T06:03:54.268Z,9.00
2018-01-02T06:06:22.643Z,8.40
2018-01-02T06:08:50.875Z,8.50
2018-01-02T06:11:19.124Z,8.33
2018-01-02T06:13:47.370Z,8.97
2018-01-02T06:16:15.717Z,8.67
2018-01-02T06:18:44.756Z,8.60
2018-01-02T06:21:13.155Z,8.33
2018-01-02T06:23:41.453Z,9.10
2018-01-02T06:26:09.769Z,8.23
2018-01-02T06:28:38.769Z,8.60
2018-01-02T06:31:07.115Z,8.63
2018-01-02T06:33:35.382Z,9.03
2018-01-02T06:36:03.662Z,8.23
2018-01-02T06:38:31.958Z,8.27
2018-01-02T06:41:00.982Z,8.37
2018-01-02T06:43:29.207Z,8.90
2018-01-02T06:45:57.429Z,8.23
2018-01-02T06:48:25.685Z,8.80
2018-01-02T06:50:54.681Z,7.97
2018-01-02T06:53:22.936Z,9.43
2018-01-02T06:55:51.218Z,8.50
2018-01-02T06:58:19.493Z,9.70
2018-01-02T07:00:47.731Z,9.43
2018-01-02T07:03:16.758Z,8.67
2018-01-02T07:05:45.045Z,9.70
2018-01-02T07:08:13.256Z,9.47
2018-01-02T07:10:41.532Z,9.47
2018-01-02T07:13:09.797Z,8.80
2018-01-02T07:15:38.139Z,9.37
2018-01-02T07:18:06.412Z,9.27
2018-01-02T07:20:34.642Z,9.47
2018-01-02T07:23:02.859Z,9.67
2018-01-02T07:25:31.120Z,9.30
2018-01-02T07:27:59.406Z,9.93
2018-01-02T07:30:27.729Z,10.23
2018-01-02T07:32:56.025Z,10.60
2018-01-02T07:35:24.333Z,10.00
2018-01-02T07:37:52.567Z,9.70
2018-01-02T07:40:20.844Z,10.20
2018-01-02T07:42:49.110Z,10.03
2018-01-02T07:45:17.335Z,10.40
2018-01-02T07:50:14.641Z,9.43
2018-01-02T07:52:42.844Z,10.00
2018-01-02T07:55:11.218Z,10.30
2018-01-02T07:57:39.555Z,10.10
2018-01-02T08:00:07.806Z,9.97
2018-01-02T08:02:36.043Z,10.37
2018-01-02T08:05:04.313Z,10.63
2018-01-02T08:07:32.936Z,9.97
2018-01-02T08:10:01.431Z,9.77
2018-01-02T08:12:29.787Z,10.10
2018-01-02T08:14:58.176Z,10.20
2018-01-02T08:17:26.414Z,10.90
2018-01-02T08:19:54.716Z,10.57
2018-01-02T08:22:23.059Z,10.30
2018-01-02T08:24:52.082Z,10.93
2018-01-02T08:27:20.370Z,11.03
2018-01-02T08:29:48.654Z,10.67
2018-01-02T08:32:16.882Z,10.60
2018-01-02T08:34:45.182Z,10.50
2018-01-02T08:37:13.491Z,10.70
2018-01-02T08:39:41.727Z,10.13
2018-01-02T08:42:10.018Z,11.40
2018-01-02T08:44:38.282Z,9.67
2018-01-02T08:47:06.633Z,10.17
2018-01-02T08:49:34.891Z,10.87
2018-01-02T08:52:04.763Z,9.93
2018-01-02T08:54:33.041Z,9.73
2018-01-02T08:57:01.303Z,9.37
2018-01-02T08:59:29.629Z,9.20
2018-01-02T09:01:57.853Z,9.43
2018-01-02T09:04:26.164Z,10.20
2018-01-02T09:06:54.572Z,9.17
2018-01-02T09:09:22.786Z,9.73
2018-01-02T09:11:51.398Z,9.57
2018-01-02T09:14:19.646Z,8.90
2018-01-02T09:16:48.799Z,9.87
2018-01-02T09:19:17.067Z,9.83
2018-01-02T09:21:45.520Z,9.93
2018-01-02T09:24:13.774Z,8.97
2018-01-02T09:26:42.071Z,9.53
2018-01-02T09:29:10.328Z,9.50
2018-01-02T09:31:38.567Z,9.90
2018-01-02T09:34:07.478Z,9.80
2018-01-02T09:36:36.656Z,9.87
2018-01-02T09:39:04.971Z,9.90
2018-01-02T09:41:33.217Z,9.60
2018-01-02T09:44:02.328Z,9.57
2018-01-02T09:46:30.542Z,9.53
2018-01-02T09:48:58.873Z,9.27
2018-01-02T09:51:28.011Z,9.97
2018-01-02T09:53:56.265Z,9.60
2018-01-02T09:56:25.836Z,9.07
2018-01-02T09:58:54.090Z,8.80
2018-01-02T10:01:22.342Z,10.07
2018-01-02T10:03:51.739Z,9.30
2018-01-02T10:06:19.998Z,9.10
2018-01-02T10:08:48.273Z,8.97
2018-01-02T10:11:16.651Z,8.77
2018-01-02T10:13:45.676Z,9.47
2018-01-02T10:16:13.966Z,8.37
2018-01-02T10:18:42.274Z,9.13
2018-01-02T10:21:11.390Z,9.07
2018-01-02T10:23:40.510Z,8.03
2018-01-02T10:26:08.875Z,8.60
2018-01-02T10:28:37.164Z,8.27
2018-01-02T10:31:09.327Z,8.50
2018-01-02T10:33:37.944Z,8.40
2018-01-02T10:36:06.452Z,8.47
2018-01-02T10:38:34.874Z,8.67
2018-01-02T10:41:03.961Z,8.53
2018-01-02T10:43:33.062Z,8.03
2018-01-02T10:46:01.408Z,8.20
2018-01-02T10:48:29.739Z,8.97
2018-01-02T10:50:57.999Z,8.90
2018-01-02T10:53:27.014Z,8.77
2018-01-02T10:55:55.300Z,8.60
2018-01-02T10:58:23.547Z,9.17
2018-01-02T11:00:57.587Z,9.40
2018-01-02T11:03:25.945Z,8.40
2018-01-02T11:05:54.264Z,7.90
2018-01-02T11:08:22.602Z,8.23
2018-01-02T11:11:09.906Z,7.87
2018-01-02T11:13:44.554Z,7.70
2018-01-02T11:16:12.874Z,8.03
2018-01-02T11:18:41.171Z,10.27
2018-01-02T11:21:09.454Z,7.90
2018-01-02T11:23:38.437Z,7.80
2018-01-02T11:26:06.756Z,8.23
2018-01-02T11:28:35.064Z,8.33
2018-01-02T11:31:03.351Z,8.50
2018-01-02T11:33:31.742Z,7.93
2018-01-02T11:36:00.041Z,7.97
2018-01-02T11:38:29.050Z,8.20
2018-01-02T11:40:57.315Z,8.33
2018-01-02T11:43:26.388Z,8.10
2018-01-02T11:45:55.446Z,7.87
2018-01-02T11:48:23.802Z,7.87
2018-01-02T11:50:52.207Z,7.77
2018-01-02T11:53:20.402Z,8.00
2018-01-02T11:55:48.723Z,8.10
2018-01-02T11:58:17.771Z,8.10
2018-01-02T12:00:46.371Z,8.03
2018-01-02T12:03:14.946Z,8.23
2018-01-02T12:05:43.255Z,8.27
2018-01-02T12:08:12.258Z,8.13
2018-01-02T12:10:40.502Z,8.17
2018-01-02T12:13:08.802Z,8.73
2018-01-02T12:15:37.092Z,9.30
2018-01-02T12:18:05.353Z,8.87
2018-01-02T12:20:34.369Z,8.40
2018-01-02T12:23:02.647Z,8.53
2018-01-02T12:25:32.104Z,8.80
2018-01-02T12:28:01.639Z,8.33
2018-01-02T12:30:30.715Z,8.20
2018-01-02T12:32:59.721Z,8.30
2018-01-02T12:35:29.003Z,7.30
2018-01-02T12:37:57.389Z,7.33
2018-01-02T12:40:25.714Z,7.57
2018-01-02T12:42:54.032Z,7.10
2018-01-02T12:45:22.483Z,7.53
2018-01-02T12:47:50.866Z,7.50
2018-01-02T12:50:19.146Z,7.37
2018-01-02T12:52:47.526Z,8.33
2018-01-02T12:55:15.774Z,8.17
2018-01-02T12:57:44.081Z,8.50
2018-01-02T13:00:14.848Z,8.27
2018-01-02T13:02:43.938Z,8.03
2018-01-02T13:05:12.964Z,8.63
2018-01-02T13:07:41.323Z,8.30
2018-01-02T13:10:09.629Z,7.90
2018-01-02T13:12:38.646Z,8.07
2018-01-02T13:15:06.889Z,8.40
2018-01-02T13:17:35.136Z,8.57
2018-01-02T13:20:04.222Z,8.37
2018-01-02T13:22:33.266Z,9.00
2018-01-02T13:25:01.563Z,8.60
2018-01-02T13:27:29.885Z,8.50
2018-01-02T13:29:58.145Z,8.10
2018-01-02T13:32:26.421Z,8.20
2018-01-02T13:34:54.654Z,8.60
2018-01-02T13:37:22.954Z,8.30
2018-01-02T13:39:51.318Z,8.20
2018-01-02T13:42:19.635Z,8.87
2018-01-02T13:44:47.902Z,8.80
2018-01-02T13:47:16.217Z,8.80
2018-01-02T13:49:44.512Z,8.63
2018-01-02T13:52:12.851Z,8.80
2018-01-02T13:54:41.118Z,9.23
2018-01-02T13:57:10.159Z,8.70
2018-01-02T13:59:38.526Z,8.90
2018-01-02T14:02:07.592Z,9.50
2018-01-02T14:04:36.020Z,9.00
2018-01-02T14:09:38.882Z,9.10
2018-01-02T14:12:07.859Z,8.47
2018-01-02T14:14:44.078Z,9.07
2018-01-02T14:17:12.330Z,9.00
2018-01-02T14:19:40.555Z,9.00
2018-01-02T14:22:08.818Z,7.90
2018-01-02T14:24:37.048Z,8.53
2018-01-02T14:27:06.215Z,9.33
2018-01-02T14:29:34.506Z,9.10
2018-01-02T14:32:03.623Z,8.70
2018-01-02T14:34:32.717Z,9.07
2018-01-02T14:37:01.021Z,9.07
2018-01-02T14:39:29.273Z,9.23
2018-01-02T14:41:58.358Z,10.00
2018-01-02T14:44:27.389Z,9.60
2018-01-02T14:46:55.620Z,9.77
2018-01-02T14:49:24.631Z,10.37
2018-01-02T14:51:52.879Z,10.10
2018-01-02T14:54:21.900Z,9.63
2018-01-02T14:56:50.130Z,10.43
2018-01-02T14:59:18.429Z,10.50
2018-01-02T15:01:46.844Z,10.50
2018-01-02T15:04:15.267Z,10.80
2018-01-02T15:06:43.543Z,11.03
2018-01-02T15:09:11.819Z,11.23
2018-01-02T15:11:40.093Z,10.93
2018-01-02T15:14:08.474Z,11.67
2018-01-02T15:16:36.846Z,12.27
2018-01-02T15:19:05.087Z,11.53
2018-01-02T15:21:33.361Z,11.00
2018-01-02T15:24:01.596Z,11.07
2018-01-02T15:26:30.067Z,11.57
2018-01-02T15:28:58.348Z,11.87
2018-01-02T15:31:26.626Z,11.83
2018-01-02T15:33:54.958Z,10.73
2018-01-02T15:36:23.268Z,11.57
2018-01-02T15:38:52.243Z,11.37
2018-01-02T15:41:21.245Z,11.20
2018-01-02T15:43:49.514Z,11.20
2018-01-02T15:46:17.780Z,10.77
2018-01-02T15:48:46.050Z,10.63
2018-01-02T15:51:14.306Z,11.60
2018-01-02T15:53:43.347Z,11.77
2018-01-02T15:56:11.607Z,11.07
2018-01-02T15:58:40.630Z,11.37
2018-01-02T16:01:08.879Z,11.60
2018-01-02T16:03:37.414Z,11.40
2018-01-02T16:06:06.486Z,12.50
2018-01-02T16:08:34.750Z,11.67
2018-01-02T16:11:03.028Z,10.50
2018-01-02T16:13:31.319Z,10.40
2018-01-02T16:15:59.622Z,9.90
2018-01-02T16:18:28.621Z,10.67
2018-01-02T16:20:57.702Z,9.83
2018-01-02T16:23:26.030Z,10.73
2018-01-02T16:25:54.542Z,10.43
2018-01-02T16:28:22.893Z,10.23
2018-01-02T16:30:51.155Z,11.40
2018-01-02T16:33:19.453Z,11.20
2018-01-02T16:35:47.826Z,10.20
2018-01-02T16:38:16.114Z,10.60
2018-01-02T16:40:44.330Z,12.07
2018-01-02T16:43:13.399Z,11.80
2018-01-02T16:45:41.710Z,11.80
2018-01-02T16:48:09.963Z,12.33
2018-01-02T16:50:38.333Z,12.47
2018-01-02T16:53:06.618Z,13.43
2018-01-02T16:55:34.877Z,13.57
2018-01-02T16:58:03.148Z,13.17
2018-01-02T17:00:31.477Z,12.40
2018-01-02T17:02:59.675Z,14.03
2018-01-02T17:05:27.998Z,14.60
2018-01-02T17:07:56.242Z,13.63
2018-01-02T17:10:25.303Z,14.60
2018-01-02T17:12:53.576Z,13.20
2018-01-02T17:15:21.919Z,13.43
2018-01-02T17:17:51.183Z,15.23
2018-01-02T17:20:19.454Z,13.97
2018-01-02T17:22:48.488Z,14.67
2018-01-02T17:25:16.770Z,12.33
2018-01-02T17:27:45.041Z,14.73
2018-01-02T17:30:13.474Z,14.13
2018-01-02T17:32:41.717Z,14.40
2018-01-02T17:35:10.009Z,13.57
2018-01-02T17:37:38.448Z,13.63
2018-01-02T17:40:06.705Z,13.63
2018-01-02T17:42:35.806Z,12.67
2018-01-02T17:45:04.807Z,12.97
2018-01-02T17:47:33.127Z,12.70
2018-01-02T17:50:01.381Z,12.17
2018-01-02T17:52:29.659Z,11.80
2018-01-02T17:54:57.973Z,12.20
2018-01-02T17:57:26.212Z,12.53
2018-01-02T17:59:54.472Z,12.63
2018-01-02T18:02:22.755Z,11.57
2018-01-02T18:04:51.299Z,12.07
2018-01-02T18:07:19.536Z,12.07
2018-01-02T18:09:47.762Z,11.73
2018-01-02T18:12:16.074Z,13.23
2018-01-02T18:14:44.445Z,11.63
2018-01-02T18:17:12.867Z,11.87
2018-01-02T18:19:41.505Z,12.03
2018-01-02T18:22:10.138Z,11.20
2018-01-02T18:24:38.362Z,12.93
2018-01-02T18:27:07.231Z,14.63
2018-01-02T18:29:36.290Z,12.23
2018-01-02T18:32:04.523Z,13.00
2018-01-02T18:34:32.777Z,11.57
2018-01-02T18:37:01.015Z,11.07
2018-01-02T18:39:29.363Z,12.57
2018-01-02T18:41:58.419Z,14.13
2018-01-02T18:44:27.449Z,14.03
2018-01-02T18:46:55.824Z,12.87
2018-01-02T18:49:24.910Z,12.10
2018-01-02T18:51:53.283Z,11.97
2018-01-02T18:54:21.616Z,12.20
2018-01-02T18:56:49.920Z,13.70
2018-01-02T18:59:18.926Z,13.47
2018-01-02T19:01:47.218Z,12.30
2018-01-02T19:04:16.258Z,13.17
2018-01-02T19:06:47.209Z,13.23
2018-01-02T19:09:16.210Z,14.47
2018-01-02T19:11:46.730Z,13.37
2018-01-02T19:14:15.029Z,13.93
2018-01-02T19:16:43.422Z,13.90
2018-01-02T19:19:11.920Z,14.20
2018-01-02T19:21:40.323Z,13.13
2018-01-02T19:24:08.671Z,14.93
2018-01-02T19:26:36.928Z,13.53
2018-01-02T19:29:05.962Z,14.17
2018-01-02T19:31:34.238Z,14.50
2018-01-02T19:34:02.851Z,14.77
2018-01-02T19:36:31.467Z,14.40
2018-01-02T19:39:01.006Z,13.23
2018-01-02T19:41:29.262Z,13.27
2018-01-02T19:43:58.562Z,12.00
2018-01-02T19:46:26.783Z,13.23
2018-01-02T19:48:55.059Z,13.13
2018-01-02T19:51:23.505Z,14.40
2018-01-02T19:53:51.810Z,13.70
2018-01-02T19:56:20.227Z,13.47
2018-01-02T19:58:48.597Z,17.07
2018-01-02T20:01:16.912Z,13.80
2018-01-02T20:03:45.990Z,16.10
2018-01-02T20:06:15.122Z,18.13
2018-01-02T20:08:43.469Z,16.47
2018-01-02T20:11:12.561Z,16.70
2018-01-02T20:13:41.075Z,21.53
2018-01-02T20:16:09.403Z,17.33
2018-01-02T20:18:41.762Z,13.47
2018-01-02T20:21:10.048Z,13.17
2018-01-02T20:23:39.007Z,15.57
2018-01-02T20:26:07.493Z,12.60
2018-01-02T20:28:35.943Z,16.10
2018-01-02T20:31:05.220Z,15.93
2018-01-02T20:33:34.247Z,14.07
2018-01-02T20:36:02.580Z,16.00
2018-01-02T20:38:30.841Z,12.80
2018-01-02T20:40:59.162Z,13.73
2018-01-02T20:43:27.434Z,16.03
2018-01-02T20:45:57.483Z,17.03
2018-01-02T20:48:25.896Z,13.13
2018-01-02T20:50:55.047Z,19.80
2018-01-02T20:53:24.675Z,15.90
2018-01-02T20:55:54.141Z,14.80
2018-01-02T20:58:23.278Z,15.43
2018-01-02T21:00:53.583Z,17.30
2018-01-02T21:03:22.926Z,13.93
2018-01-02T21:05:51.937Z,13.40
2018-01-02T21:08:21.376Z,15.20
2018-01-02T21:10:49.673Z,17.10
2018-01-02T21:13:18.069Z,22.13
2018-01-02T21:15:46.358Z,18.73
2018-01-02T21:18:18.767Z,16.93
2018-01-02T21:20:47.128Z,20.53
2018-01-02T21:23:15.474Z,17.53
2018-01-02T21:25:43.747Z,15.40
2018-01-02T21:28:12.022Z,17.47
2018-01-02T21:30:41.019Z,15.43
2018-01-02T21:33:10.164Z,15.37
2018-01-02T21:35:38.474Z,16.40
2018-01-02T21:38:06.812Z,14.93
2018-01-02T21:40:35.234Z,17.50
2018-01-02T21:43:03.479Z,18.37
2018-01-02T21:45:31.894Z,16.23
2018-01-02T21:48:00.134Z,11.60
2018-01-02T21:50:28.511Z,16.10
2018-01-02T21:52:56.840Z,14.67
2018-01-02T21:55:26.022Z,13.77
2018-01-02T21:57:54.313Z,12.77
2018-01-02T22:00:23.315Z,17.77
2018-01-02T22:02:52.430Z,19.97
2018-01-02T22:05:21.431Z,16.53
2018-01-02T22:07:49.706Z,15.03
2018-01-02T22:10:18.136Z,18.07
2018-01-02T22:12:46.487Z,15.73
2018-01-02T22:15:15.667Z,15.30
2018-01-02T22:17:44.989Z,14.20
2018-01-02T22:20:13.312Z,16.93
2018-01-02T22:22:42.576Z,14.80
2018-01-02T22:25:10.955Z,12.60
2018-01-02T22:27:39.297Z,11.83
2018-01-02T22:30:08.457Z,16.27
2018-01-02T22:32:36.767Z,15.00
2018-01-02T22:35:05.388Z,15.43
2018-01-02T22:37:33.645Z,11.97
2018-01-02T22:40:01.894Z,14.03
2018-01-02T22:42:31.800Z,12.60
2018-01-02T22:45:01.584Z,13.53
2018-01-02T22:47:31.699Z,11.20
2018-01-02T22:50:00.593Z,15.77
2018-01-02T22:52:29.183Z,14.70
2018-01-02T22:54:57.784Z,12.13
2018-01-02T22:57:27.037Z,17.43
2018-01-02T22:59:55.266Z,15.00
2018-01-02T23:02:24.468Z,14.37
2018-01-02T23:04:53.902Z,12.97
2018-01-02T23:07:22.953Z,15.33
2018-01-02T23:09:51.433Z,14.93
2018-01-02T23:12:20.677Z,12.10
2018-01-02T23:14:49.209Z,12.00
2018-01-02T23:17:17.607Z,16.70
2018-01-02T23:19:46.178Z,14.40
2018-01-02T23:22:14.523Z,13.40
2018-01-02T23:24:44.846Z,15.27
2018-01-02T23:27:14.217Z,16.37
2018-01-02T23:29:43.531Z,16.90
2018-01-02T23:32:12.094Z,12.33
2018-01-02T23:34:41.480Z,14.80
2018-01-02T23:37:09.809Z,15.63
2018-01-02T23:39:38.105Z,18.93
2018-01-02T23:42:06.435Z,14.33
2018-01-02T23:44:35.520Z,15.53
2018-01-02T23:47:03.746Z,12.80
2018-01-02T23:49:32.144Z,15.77
2018-01-02T23:52:00.429Z,12.40
2018-01-02T23:54:28.815Z,19.87
2018-01-02T23:56:57.933Z,13.10
2018-01-02T23:59:26.610Z,13.37
